Time;durP1;ratioP1;P1;durP2;ratioP2;P2;SDS_P1;SDS_P2;PMS_P1;PMS_P2;Temp;Humidity;BMP_temperature;BMP_pressure;BME280_temperature;BME280_humidity;BME280_pressure;Samples;Min_cycle;Max_cycle;Signal;HPM_P1;HPM_P2
2022/04/26 03:36:12;;;;;;;29.30;20.47;;;;;;;;;;5061907;28;20394;-86
2022/04/26 03:38:43;;;;;;;23.27;18.33;;;;;;;;;;5061651;28;20464;-86
2022/04/26 03:41:09;;;;;;;24.07;19.00;;;;;;;;;;5061742;28;20457;-86
2022/04/26 03:43:35;;;;;;;23.80;19.13;;;;;;;;;;5061991;28;20478;-86
2022/04/26 03:46:01;;;;;;;21.27;17.63;;;;;;;;;;5062125;28;20402;-86
2022/04/26 03:48:28;;;;;;;25.30;19.57;;;;;;;;;;5044234;28;20430;-86
2022/04/26 03:50:54;;;;;;;24.67;18.40;;;;;;;;;;5061852;28;20413;-86
2022/04/26 03:53:20;;;;;;;23.13;18.10;;;;;;;;;;5061458;28;20436;-86
2022/04/26 03:55:47;;;;;;;21.43;19.13;;;;;;;;;;5061877;28;20452;-86
2022/04/26 03:58:13;;;;;;;24.47;19.40;;;;;;;;;;5062019;28;20547;-86
2022/04/26 04:00:39;;;;;;;23.57;19.23;;;;;;;;;;5061995;28;20408;-86
2022/04/26 04:03:05;;;;;;;23.13;19.70;;;;;;;;;;5042505;28;20417;-85
2022/04/26 04:05:31;;;;;;;24.80;19.37;;;;;;;;;;5058953;28;20402;-86
2022/04/26 04:07:57;;;;;;;22.70;19.07;;;;;;;;;;5060136;28;20425;-86
2022/04/26 04:10:23;;;;;;;24.27;17.93;;;;;;;;;;5060126;28;20454;-85
2022/04/26 04:12:49;;;;;;;22.90;18.50;;;;;;;;;;5060769;28;20769;-85
2022/04/26 04:15:15;;;;;;;24.37;18.70;;;;;;;;;;5042409;28;20822;-86
2022/04/26 04:17:41;;;;;;;22.63;18.60;;;;;;;;;;5060061;28;20437;-86
2022/04/26 04:20:08;;;;;;;24.90;19.67;;;;;;;;;;5060743;28;20763;-86
2022/04/26 04:22:34;;;;;;;25.10;18.70;;;;;;;;;;5026784;28;20520;-86
2022/04/26 04:25:00;;;;;;;22.80;17.80;;;;;;;;;;5061108;28;20409;-86
2022/04/26 04:27:26;;;;;;;26.23;20.50;;;;;;;;;;5061138;28;20440;-86
2022/04/26 04:29:52;;;;;;;25.23;18.87;;;;;;;;;;5061142;28;20406;-86
2022/04/26 04:32:18;;;;;;;29.07;20.57;;;;;;;;;;5060809;28;20463;-86
2022/04/26 04:34:45;;;;;;;24.90;19.37;;;;;;;;;;5060682;28;20485;-86
2022/04/26 04:37:11;;;;;;;27.27;20.07;;;;;;;;;;5052640;28;20425;-85
2022/04/26 04:39:37;;;;;;;21.57;17.83;;;;;;;;;;5078065;28;20873;-86
2022/04/26 04:42:03;;;;;;;22.73;19.83;;;;;;;;;;5061246;28;20413;-86
2022/04/26 04:44:29;;;;;;;22.10;18.03;;;;;;;;;;5044248;28;20408;-86
2022/04/26 04:46:58;;;;;;;23.93;19.33;;;;;;;;;;5061476;28;20413;-85
2022/04/26 04:49:25;;;;;;;23.83;18.17;;;;;;;;;;5062015;28;20408;-85
2022/04/26 04:51:51;;;;;;;21.63;18.50;;;;;;;;;;5061637;28;20451;-85
2022/04/26 04:54:17;;;;;;;20.30;16.90;;;;;;;;;;5060733;28;20449;-86
2022/04/26 04:56:43;;;;;;;19.93;16.30;;;;;;;;;;5061041;28;20739;-85
2022/04/26 04:59:09;;;;;;;19.07;16.50;;;;;;;;;;5042465;28;20500;-84
2022/04/26 05:01:35;;;;;;;20.00;16.63;;;;;;;;;;5060263;28;20413;-86
2022/04/26 05:04:01;;;;;;;19.17;16.23;;;;;;;;;;5060029;28;20397;-86
2022/04/26 05:06:27;;;;;;;23.03;16.60;;;;;;;;;;5059661;28;20424;-87
2022/04/26 05:08:53;;;;;;;21.13;17.00;;;;;;;;;;5059790;28;20425;-86
2022/04/26 05:11:19;;;;;;;20.13;15.93;;;;;;;;;;5059633;28;20438;-84
2022/04/26 05:13:45;;;;;;;23.27;17.17;;;;;;;;;;5080123;28;20952;-86
2022/04/26 05:16:11;;;;;;;20.00;16.20;;;;;;;;;;5061820;28;20424;-85
2022/04/26 05:18:37;;;;;;;22.03;17.30;;;;;;;;;;5079848;28;20859;-85
2022/04/26 05:21:07;;;;;;;23.10;17.60;;;;;;;;;;5082711;28;20468;-85
2022/04/26 05:26:18;;;;;;;18.07;15.53;;;;;;;;;;5082698;28;20449;-85
2022/04/26 05:28:45;;;;;;;20.03;16.30;;;;;;;;;;5082881;28;20542;-86
2022/04/26 05:31:11;;;;;;;17.73;15.00;;;;;;;;;;5083124;28;20408;-85
2022/04/26 05:33:37;;;;;;;20.20;15.47;;;;;;;;;;5081678;28;20478;-85
2022/04/26 05:36:03;;;;;;;18.23;15.80;;;;;;;;;;5080971;28;20473;-85
2022/04/26 05:38:30;;;;;;;22.60;16.93;;;;;;;;;;5083502;28;20454;-85
2022/04/26 05:40:56;;;;;;;19.40;16.67;;;;;;;;;;5083113;28;20413;-85
2022/04/26 05:43:22;;;;;;;17.83;15.07;;;;;;;;;;5082226;28;20424;-84
2022/04/26 05:45:48;;;;;;;16.93;14.43;;;;;;;;;;5082599;28;20492;-84
2022/04/26 05:48:14;;;;;;;17.30;14.60;;;;;;;;;;5083875;28;20484;-84
2022/04/26 05:50:41;;;;;;;17.70;15.57;;;;;;;;;;5083557;28;20929;-85
2022/04/26 05:53:07;;;;;;;18.43;15.20;;;;;;;;;;5086031;28;20197;-84
2022/04/26 05:55:33;;;;;;;19.00;16.00;;;;;;;;;;5082231;28;20444;-87
2022/04/26 05:57:59;;;;;;;17.60;15.57;;;;;;;;;;5063657;28;20805;-86
2022/04/26 06:00:25;;;;;;;19.10;16.13;;;;;;;;;;5093778;22;20504;-84
2022/04/26 06:02:51;;;;;;;18.67;14.60;;;;;;;;;;5037836;28;20956;-84
2022/04/26 06:05:17;;;;;;;19.83;14.80;;;;;;;;;;5043888;28;20417;-85
2022/04/26 06:07:43;;;;;;;19.07;15.83;;;;;;;;;;5067924;28;20679;-86
2022/04/26 06:10:11;;;;;;;20.77;16.50;;;;;;;;;;5062733;28;20413;-86
2022/04/26 06:12:39;;;;;;;22.27;16.30;;;;;;;;;;5042972;28;20399;-85
2022/04/26 06:15:05;;;;;;;18.30;15.47;;;;;;;;;;5042010;28;21001;-84
2022/04/26 06:17:32;;;;;;;17.73;15.77;;;;;;;;;;5041811;28;20426;-84
2022/04/26 06:19:59;;;;;;;17.60;14.67;;;;;;;;;;5043648;28;20497;-84
2022/04/26 06:22:25;;;;;;;19.40;15.57;;;;;;;;;;5043029;28;20433;-84
2022/04/26 06:24:52;;;;;;;18.90;14.17;;;;;;;;;;5057745;28;20426;-84
2022/04/26 06:27:18;;;;;;;15.90;13.30;;;;;;;;;;5061273;28;20536;-85
2022/04/26 06:29:45;;;;;;;16.27;14.10;;;;;;;;;;5045009;28;20437;-85
2022/04/26 06:32:11;;;;;;;15.07;12.17;;;;;;;;;;5061967;28;20445;-84
2022/04/26 06:34:37;;;;;;;16.03;12.63;;;;;;;;;;5062620;28;20449;-84
2022/04/26 06:37:03;;;;;;;14.03;11.70;;;;;;;;;;5063897;28;20416;-84
2022/04/26 06:39:29;;;;;;;13.90;11.43;;;;;;;;;;5063597;28;20410;-86
2022/04/26 06:41:55;;;;;;;14.50;11.60;;;;;;;;;;5061331;28;20411;-84
2022/04/26 06:44:21;;;;;;;12.87;11.10;;;;;;;;;;5043809;28;20172;-84
2022/04/26 06:46:47;;;;;;;13.13;11.73;;;;;;;;;;5048964;28;20441;-86
2022/04/26 06:49:13;;;;;;;12.50;11.20;;;;;;;;;;5062500;28;20414;-84
2022/04/26 06:51:44;;;;;;;10.73;9.67;;;;;;;;;;5035596;28;20210;-83
2022/04/26 06:54:10;;;;;;;16.33;11.33;;;;;;;;;;5033724;28;20508;-84
2022/04/26 06:56:36;;;;;;;12.43;10.53;;;;;;;;;;5030159;28;20433;-86
2022/04/26 06:59:02;;;;;;;13.40;12.00;;;;;;;;;;5057467;28;20414;-86
2022/04/26 07:01:28;;;;;;;11.97;10.77;;;;;;;;;;5057615;28;20455;-86
2022/04/26 07:03:55;;;;;;;11.10;9.47;;;;;;;;;;5066214;28;20421;-85
2022/04/26 07:06:21;;;;;;;10.87;9.77;;;;;;;;;;5060585;28;20817;-85
2022/04/26 07:08:47;;;;;;;9.90;8.33;;;;;;;;;;5053809;28;20411;-86
2022/04/26 07:11:15;;;;;;;11.20;9.30;;;;;;;;;;5037650;28;20448;-84
2022/04/26 07:13:41;;;;;;;9.40;8.10;;;;;;;;;;5047696;28;20442;-85
2022/04/26 07:16:08;;;;;;;9.93;8.93;;;;;;;;;;5048829;28;20415;-86
2022/04/26 07:18:34;;;;;;;10.20;8.10;;;;;;;;;;5048615;28;20399;-85
2022/04/26 07:21:00;;;;;;;8.40;7.30;;;;;;;;;;5037433;28;20467;-83
2022/04/26 07:23:26;;;;;;;10.93;7.60;;;;;;;;;;5063919;28;20416;-84
2022/04/26 07:25:52;;;;;;;9.30;7.80;;;;;;;;;;5047372;28;20470;-83
2022/04/26 07:28:19;;;;;;;10.10;7.60;;;;;;;;;;5022344;28;20450;-83
2022/04/26 07:30:45;;;;;;;8.20;6.80;;;;;;;;;;5032054;28;20508;-85
2022/04/26 07:35:56;;;;;;;5.73;5.10;;;;;;;;;;5060281;28;20412;-85
2022/04/26 07:38:25;;;;;;;5.50;4.87;;;;;;;;;;5065352;28;20412;-85
2022/04/26 07:41:11;;;;;;;9.77;4.80;;;;;;;;;;5047955;28;20422;-85
2022/04/26 07:43:37;;;;;;;5.83;5.23;;;;;;;;;;5026941;28;20926;-85
2022/04/26 07:46:04;;;;;;;6.80;5.40;;;;;;;;;;5046768;28;20449;-86
2022/04/26 07:48:30;;;;;;;5.60;4.67;;;;;;;;;;5065364;28;20405;-84
2022/04/26 07:50:56;;;;;;;4.97;4.47;;;;;;;;;;5059246;28;20426;-82
2022/04/26 07:53:25;;;;;;;5.47;4.00;;;;;;;;;;5041267;28;20439;-85
2022/04/26 07:55:51;;;;;;;5.70;4.60;;;;;;;;;;5054181;28;20419;-85
2022/04/26 07:58:17;;;;;;;9.20;6.37;;;;;;;;;;5060911;28;20167;-85
2022/04/26 08:00:43;;;;;;;6.27;4.03;;;;;;;;;;5038480;28;20821;-84
2022/04/26 08:03:09;;;;;;;5.38;4.10;;;;;;;;;;5043197;28;20937;-86
2022/04/26 08:05:35;;;;;;;4.97;4.10;;;;;;;;;;5056374;28;20183;-84
2022/04/26 08:08:01;;;;;;;6.20;4.30;;;;;;;;;;5046812;28;20414;-84
2022/04/26 08:10:28;;;;;;;5.00;4.10;;;;;;;;;;5058592;28;20445;-86
2022/04/26 08:12:54;;;;;;;3.77;3.37;;;;;;;;;;5066032;28;20410;-85
2022/04/26 08:15:20;;;;;;;4.90;4.00;;;;;;;;;;5062384;28;20441;-86
2022/04/26 08:17:48;;;;;;;4.40;3.20;;;;;;;;;;5042472;28;20421;-85
2022/04/26 08:20:14;;;;;;;4.40;3.80;;;;;;;;;;5049233;28;20901;-84
2022/04/26 08:22:40;;;;;;;4.03;3.63;;;;;;;;;;5064759;28;20413;-84
2022/04/26 08:27:51;;;;;;;5.13;4.60;;;;;;;;;;5064227;28;20484;-86
2022/04/26 08:30:17;;;;;;;5.57;4.17;;;;;;;;;;5060022;28;20996;-86
2022/04/26 08:32:45;;;;;;;5.87;4.13;;;;;;;;;;5045839;28;20415;-85
2022/04/26 08:35:12;;;;;;;4.67;3.83;;;;;;;;;;5049089;28;20591;-86
2022/04/26 08:37:38;;;;;;;4.60;4.10;;;;;;;;;;5055486;28;20418;-86
2022/04/26 08:40:10;;;;;;;5.00;4.53;;;;;;;;;;5027800;28;20472;-86
2022/04/26 08:42:37;;;;;;;4.60;3.80;;;;;;;;;;5047630;28;20433;-86
2022/04/26 08:45:08;;;;;;;4.87;3.50;;;;;;;;;;5065323;28;20436;-85
2022/04/26 08:53:05;;;;;;;4.50;3.63;;;;;;;;;;5044286;28;20450;-82
2022/04/26 08:55:31;;;;;;;5.20;3.47;;;;;;;;;;5064840;28;20441;-84
2022/04/26 08:57:58;;;;;;;4.10;3.10;;;;;;;;;;5062558;28;20409;-86
2022/04/26 09:00:24;;;;;;;3.40;2.80;;;;;;;;;;5038465;28;20474;-87
2022/04/26 09:03:02;;;;;;;4.00;3.27;;;;;;;;;;5047728;28;20436;-83
2022/04/26 09:05:28;;;;;;;5.87;3.40;;;;;;;;;;5049110;28;20842;-82
2022/04/26 09:07:54;;;;;;;5.03;4.53;;;;;;;;;;5023048;28;20457;-81
2022/04/26 09:10:20;;;;;;;3.70;3.00;;;;;;;;;;5035863;28;20434;-81
2022/04/26 09:13:05;;;;;;;3.47;3.17;;;;;;;;;;5063375;28;20486;-80
2022/04/26 09:15:34;;;;;;;5.07;3.73;;;;;;;;;;5045701;28;20448;-81
2022/04/26 09:18:15;;;;;;;6.93;3.50;;;;;;;;;;5045494;28;20425;-81
2022/04/26 09:20:42;;;;;;;3.10;2.70;;;;;;;;;;5043391;28;20434;-82
2022/04/26 09:23:15;;;;;;;4.10;3.03;;;;;;;;;;5046123;28;20748;-86
2022/04/26 09:25:41;;;;;;;3.60;3.30;;;;;;;;;;5027421;28;20907;-82
2022/04/26 09:28:08;;;;;;;5.57;3.70;;;;;;;;;;5042342;28;20510;-83
2022/04/26 09:30:35;;;;;;;5.03;3.83;;;;;;;;;;5022606;28;20435;-83
2022/04/26 09:33:01;;;;;;;6.43;4.93;;;;;;;;;;5047435;28;21016;-84
2022/04/26 09:35:29;;;;;;;4.40;3.60;;;;;;;;;;5047657;28;20484;-83
2022/04/26 09:37:55;;;;;;;3.40;2.90;;;;;;;;;;5046626;28;20486;-83
2022/04/26 09:40:22;;;;;;;4.10;3.27;;;;;;;;;;5045801;28;20448;-84
2022/04/26 09:42:48;;;;;;;4.40;3.80;;;;;;;;;;5025504;28;20418;-83
2022/04/26 09:45:16;;;;;;;4.47;4.07;;;;;;;;;;5062564;28;20410;-83
2022/04/26 09:47:43;;;;;;;6.20;3.90;;;;;;;;;;5029597;28;20426;-82
2022/04/26 09:50:13;;;;;;;4.50;3.90;;;;;;;;;;5021779;28;20407;-84
2022/04/26 09:52:39;;;;;;;4.53;4.13;;;;;;;;;;5017908;28;20433;-83
2022/04/26 09:55:06;;;;;;;5.53;4.23;;;;;;;;;;5043211;28;20938;-85
2022/04/26 09:57:32;;;;;;;7.90;5.40;;;;;;;;;;5041449;28;20418;-82
2022/04/26 10:00:04;;;;;;;5.63;5.03;;;;;;;;;;5044557;28;20485;-84
2022/04/26 10:02:33;;;;;;;8.00;4.70;;;;;;;;;;5064189;28;20414;-84
2022/04/26 10:05:02;;;;;;;5.20;4.40;;;;;;;;;;5064845;28;20420;-85
2022/04/26 10:07:32;;;;;;;6.63;4.80;;;;;;;;;;5064273;28;20467;-82
2022/04/26 10:09:59;;;;;;;5.90;4.77;;;;;;;;;;5063521;28;20405;-83
2022/04/26 10:12:25;;;;;;;6.57;4.77;;;;;;;;;;5063378;28;20438;-85
2022/04/26 10:14:52;;;;;;;7.70;5.13;;;;;;;;;;5063483;28;20472;-83
2022/04/26 10:17:21;;;;;;;6.17;4.20;;;;;;;;;;5061776;28;20440;-84
2022/04/26 10:19:47;;;;;;;7.00;4.93;;;;;;;;;;5045337;28;20433;-84
2022/04/26 10:22:18;;;;;;;4.07;3.50;;;;;;;;;;5061998;28;20454;-82
2022/04/26 10:25:25;;;;;;;6.83;4.20;;;;;;;;;;5039895;28;20429;-84
2022/04/26 10:28:10;;;;;;;5.20;3.90;;;;;;;;;;4942595;29;20817;-83
2022/04/26 10:30:54;;;;;;;5.33;4.10;;;;;;;;;;4959765;28;20489;-82
2022/04/26 10:33:37;;;;;;;6.07;4.93;;;;;;;;;;4989257;28;20426;-83
2022/04/26 10:36:22;;;;;;;9.10;7.60;;;;;;;;;;5042851;28;20421;-84
2022/04/26 10:39:07;;;;;;;7.27;5.50;;;;;;;;;;5047571;28;20199;-82
2022/04/26 10:41:34;;;;;;;5.20;4.47;;;;;;;;;;5044804;28;20413;-83
2022/04/26 10:44:21;;;;;;;6.10;4.93;;;;;;;;;;5043148;28;20771;-82
2022/04/26 10:46:58;;;;;;;8.17;5.60;;;;;;;;;;5059095;28;20400;-83
2022/04/26 10:49:24;;;;;;;6.87;4.90;;;;;;;;;;5056485;28;20808;-84
2022/04/26 10:51:55;;;;;;;5.83;5.20;;;;;;;;;;5042210;28;20422;-83
2022/04/26 10:54:40;;;;;;;4.57;4.13;;;;;;;;;;5040665;28;20448;-84
2022/04/26 10:57:06;;;;;;;7.30;5.60;;;;;;;;;;5044325;28;20437;-86
2022/04/26 10:59:32;;;;;;;5.17;4.63;;;;;;;;;;5037844;28;20409;-85
2022/04/26 11:01:58;;;;;;;5.30;4.60;;;;;;;;;;5034992;28;20442;-85
2022/04/26 11:04:24;;;;;;;4.53;3.87;;;;;;;;;;5042690;28;20505;-85
2022/04/26 11:06:50;;;;;;;8.20;5.00;;;;;;;;;;5043118;28;20407;-86
2022/04/26 11:09:16;;;;;;;7.30;5.07;;;;;;;;;;5041537;28;20897;-86
2022/04/26 11:11:52;;;;;;;6.43;4.60;;;;;;;;;;5063583;28;20524;-86
2022/04/26 11:14:20;;;;;;;8.73;6.10;;;;;;;;;;5060462;28;20981;-87
2022/04/26 11:17:06;;;;;;;11.93;7.57;;;;;;;;;;5044988;28;20185;-87
2022/04/26 11:19:33;;;;;;;17.07;7.47;;;;;;;;;;5061187;28;20746;-86
2022/04/26 11:22:06;;;;;;;14.20;6.50;;;;;;;;;;5063245;28;20430;-88
2022/04/26 11:30:07;;;;;;;26.63;6.40;;;;;;;;;;5029997;28;20410;-86
2022/04/26 11:32:34;;;;;;;9.80;6.27;;;;;;;;;;5025444;28;20411;-87
2022/04/26 11:35:01;;;;;;;9.90;6.50;;;;;;;;;;5025762;28;20490;-87
2022/04/26 11:37:27;;;;;;;7.70;5.63;;;;;;;;;;5046952;28;20424;-88
2022/04/26 11:39:53;;;;;;;10.13;6.63;;;;;;;;;;5026350;28;20415;-87
2022/04/26 11:42:20;;;;;;;8.70;5.47;;;;;;;;;;5026664;28;20430;-88
2022/04/26 11:45:06;;;;;;;6.27;4.90;;;;;;;;;;5026216;28;20422;-87
2022/04/26 11:47:41;;;;;;;8.57;4.50;;;;;;;;;;5041614;28;20985;-87
2022/04/26 11:50:28;;;;;;;8.33;4.93;;;;;;;;;;5041325;28;20422;-85
2022/04/26 11:53:14;;;;;;;6.97;4.80;;;;;;;;;;5026327;28;20410;-86
2022/04/26 11:55:44;;;;;;;13.43;6.23;;;;;;;;;;5024989;28;20485;-87
2022/04/26 11:58:13;;;;;;;13.47;5.70;;;;;;;;;;5028195;28;21030;-86
2022/04/26 12:03:11;;;;;;;9.00;6.50;;;;;;;;;;5098561;22;20869;-88
2022/04/26 12:05:40;;;;;;;10.10;7.50;;;;;;;;;;5080310;28;20461;-87
2022/04/26 12:08:09;;;;;;;10.33;7.37;;;;;;;;;;5084722;28;20454;-87
2022/04/26 12:10:35;;;;;;;8.00;6.30;;;;;;;;;;5088410;28;20431;-87
2022/04/26 12:13:02;;;;;;;11.80;7.70;;;;;;;;;;5084902;28;20421;-87
2022/04/26 12:15:30;;;;;;;9.03;5.33;;;;;;;;;;5081938;28;20456;-87
2022/04/26 12:18:07;;;;;;;8.63;6.30;;;;;;;;;;5084337;28;20427;-87
2022/04/26 12:20:37;;;;;;;12.50;6.13;;;;;;;;;;5082677;28;20397;-87
2022/04/26 12:23:07;;;;;;;7.40;5.90;;;;;;;;;;5083134;28;20416;-87
2022/04/26 12:25:35;;;;;;;10.57;6.17;;;;;;;;;;5084473;28;20429;-87
2022/04/26 12:28:06;;;;;;;8.13;6.40;;;;;;;;;;5083154;28;20518;-87
2022/04/26 12:30:32;;;;;;;13.07;7.30;;;;;;;;;;5082884;28;20968;-87
2022/04/26 12:32:58;;;;;;;8.07;5.80;;;;;;;;;;5083045;28;20424;-87
2022/04/26 12:35:25;;;;;;;9.27;6.83;;;;;;;;;;5082054;28;20452;-86
2022/04/26 12:38:06;;;;;;;11.70;6.17;;;;;;;;;;5083271;28;20416;-87
2022/04/26 12:40:32;;;;;;;12.37;6.63;;;;;;;;;;5082910;28;20474;-87
2022/04/26 12:42:58;;;;;;;10.80;7.23;;;;;;;;;;5056284;28;20428;-86
2022/04/26 12:45:25;;;;;;;12.40;7.00;;;;;;;;;;5061369;28;20499;-87
2022/04/26 12:50:53;;;;;;;14.10;5.60;;;;;;;;;;5049549;28;20408;-86
2022/04/26 12:53:28;;;;;;;6.43;5.20;;;;;;;;;;5039539;28;20449;-86
2022/04/26 12:55:54;;;;;;;11.90;5.10;;;;;;;;;;5069369;28;20397;-86
2022/04/26 12:58:35;;;;;;;6.73;4.80;;;;;;;;;;5049992;28;20430;-87
2022/04/26 13:01:01;;;;;;;7.63;4.17;;;;;;;;;;5045681;28;20442;-87
2022/04/26 13:03:28;;;;;;;6.70;4.40;;;;;;;;;;5044039;28;20421;-86
2022/04/26 13:06:07;;;;;;;7.23;4.80;;;;;;;;;;5026816;28;20456;-86
2022/04/26 13:08:33;;;;;;;6.30;4.03;;;;;;;;;;5028816;28;20387;-86
2022/04/26 13:11:00;;;;;;;4.10;3.40;;;;;;;;;;5045704;28;20417;-85
2022/04/26 13:13:29;;;;;;;6.13;4.40;;;;;;;;;;5053686;28;20925;-85
2022/04/26 13:15:58;;;;;;;8.77;5.30;;;;;;;;;;5072760;28;20426;-83
2022/04/26 13:18:24;;;;;;;4.17;3.77;;;;;;;;;;5057510;28;20747;-84
2022/04/26 13:20:54;;;;;;;5.03;3.60;;;;;;;;;;5029189;28;20446;-83
2022/04/26 13:23:20;;;;;;;5.70;3.30;;;;;;;;;;5046927;28;20494;-84
2022/04/26 13:25:46;;;;;;;3.93;3.30;;;;;;;;;;5038918;28;20390;-84
2022/04/26 13:28:12;;;;;;;3.67;3.20;;;;;;;;;;5019562;28;20486;-83
2022/04/26 13:30:38;;;;;;;7.03;3.13;;;;;;;;;;5046131;28;20440;-83
2022/04/26 13:33:05;;;;;;;5.63;3.50;;;;;;;;;;5030209;28;20517;-84
2022/04/26 13:35:31;;;;;;;3.90;2.77;;;;;;;;;;5038327;28;20539;-83
2022/04/26 13:38:01;;;;;;;4.20;2.70;;;;;;;;;;5055563;28;20420;-84
2022/04/26 13:40:28;;;;;;;5.03;2.50;;;;;;;;;;5048994;28;20468;-84
2022/04/26 13:42:54;;;;;;;2.60;2.20;;;;;;;;;;5033503;28;20441;-84
2022/04/26 13:45:20;;;;;;;9.53;3.00;;;;;;;;;;5048766;28;20430;-85
2022/04/26 13:47:46;;;;;;;2.63;2.20;;;;;;;;;;5059298;28;20422;-84
2022/04/26 13:50:13;;;;;;;2.67;2.23;;;;;;;;;;5038264;28;20410;-83
2022/04/26 13:52:42;;;;;;;6.17;2.20;;;;;;;;;;5052083;28;20441;-83
2022/04/26 13:55:08;;;;;;;4.90;2.63;;;;;;;;;;5057024;28;20961;-83
2022/04/26 13:57:34;;;;;;;2.07;1.57;;;;;;;;;;5058508;28;20474;-84
2022/04/26 14:00:01;;;;;;;2.67;2.20;;;;;;;;;;5042670;28;20789;-84
2022/04/26 14:02:27;;;;;;;2.80;1.60;;;;;;;;;;5042504;28;20465;-83
2022/04/26 14:04:53;;;;;;;3.50;2.50;;;;;;;;;;5024461;28;20474;-85
2022/04/26 14:07:19;;;;;;;2.80;1.87;;;;;;;;;;5048961;28;20829;-84
2022/04/26 14:09:45;;;;;;;2.53;1.90;;;;;;;;;;5062547;28;20406;-83
2022/04/26 14:12:14;;;;;;;3.20;1.70;;;;;;;;;;5061295;28;20432;-84
2022/04/26 14:22:54;;;;;;;1.80;1.57;;;;;;;;;;5061224;28;20421;-84
2022/04/26 14:25:20;;;;;;;2.40;2.10;;;;;;;;;;5061662;28;20405;-84
2022/04/26 14:27:49;;;;;;;2.57;2.00;;;;;;;;;;5044191;28;20409;-84
2022/04/26 14:30:15;;;;;;;2.10;1.80;;;;;;;;;;5063460;28;20406;-84
2022/04/26 14:32:44;;;;;;;3.57;3.13;;;;;;;;;;5056511;28;20438;-84
2022/04/26 14:35:10;;;;;;;3.50;1.90;;;;;;;;;;5064132;28;20481;-84
2022/04/26 14:37:36;;;;;;;3.90;2.30;;;;;;;;;;5065991;28;20397;-83
2022/04/26 14:40:03;;;;;;;3.90;2.30;;;;;;;;;;5046581;28;20894;-84
2022/04/26 14:42:29;;;;;;;4.97;3.10;;;;;;;;;;5062394;28;20414;-84
2022/04/26 14:44:57;;;;;;;3.20;2.67;;;;;;;;;;5060668;28;20455;-86
2022/04/26 14:47:26;;;;;;;3.00;2.40;;;;;;;;;;5065673;28;20416;-84
2022/04/26 14:49:52;;;;;;;2.90;2.40;;;;;;;;;;5073505;28;20394;-83
2022/04/26 14:52:21;;;;;;;3.00;2.53;;;;;;;;;;5066115;28;20428;-84
2022/04/26 14:54:50;;;;;;;3.07;2.77;;;;;;;;;;5066326;28;20456;-84
2022/04/26 14:57:21;;;;;;;3.50;2.63;;;;;;;;;;5066870;28;20416;-82
2022/04/26 14:59:51;;;;;;;4.20;2.60;;;;;;;;;;5087403;28;20954;-84
2022/04/26 15:02:23;;;;;;;4.00;2.77;;;;;;;;;;5080038;28;20487;-84
2022/04/26 15:04:51;;;;;;;5.00;3.50;;;;;;;;;;5065958;28;20412;-85
2022/04/26 15:07:18;;;;;;;3.17;2.87;;;;;;;;;;5059973;28;20422;-83
2022/04/26 15:09:45;;;;;;;11.33;3.23;;;;;;;;;;5053776;28;20410;-84
2022/04/26 15:17:42;;;;;;;3.67;2.93;;;;;;;;;;5065025;28;20198;-84
2022/04/26 15:20:08;;;;;;;3.50;2.50;;;;;;;;;;5064846;28;20392;-85
2022/04/26 15:22:37;;;;;;;3.93;2.90;;;;;;;;;;5054419;28;20213;-84
2022/04/26 15:25:05;;;;;;;5.40;3.30;;;;;;;;;;5032167;28;20842;-85
2022/04/26 15:27:31;;;;;;;3.97;3.37;;;;;;;;;;5049320;28;20763;-84
2022/04/26 15:29:57;;;;;;;5.40;3.83;;;;;;;;;;5063261;28;20425;-85
2022/04/26 15:32:25;;;;;;;4.80;3.67;;;;;;;;;;5061307;28;20441;-85
2022/04/26 15:34:51;;;;;;;4.70;3.90;;;;;;;;;;5057756;28;20457;-84
2022/04/26 15:37:17;;;;;;;5.17;4.20;;;;;;;;;;5027203;28;20819;-84
2022/04/26 15:39:44;;;;;;;4.60;3.70;;;;;;;;;;5053042;28;20417;-84
2022/04/26 15:42:10;;;;;;;4.37;3.70;;;;;;;;;;5064506;28;20473;-85
2022/04/26 15:44:36;;;;;;;5.60;4.00;;;;;;;;;;5058360;28;20437;-82
2022/04/26 15:47:02;;;;;;;5.17;4.50;;;;;;;;;;5044974;28;20446;-83
2022/04/26 15:49:28;;;;;;;7.60;4.43;;;;;;;;;;5045396;28;20505;-84
2022/04/26 15:51:57;;;;;;;4.10;3.47;;;;;;;;;;5061102;28;20482;-85
2022/04/26 15:54:23;;;;;;;5.10;4.30;;;;;;;;;;5057255;28;20499;-84
2022/04/26 15:56:49;;;;;;;5.40;3.90;;;;;;;;;;5042966;28;20420;-84
2022/04/26 15:59:15;;;;;;;4.47;3.90;;;;;;;;;;5060528;28;20875;-84
2022/04/26 16:01:42;;;;;;;5.33;4.83;;;;;;;;;;5028843;28;20446;-84
2022/04/26 16:04:11;;;;;;;7.70;6.20;;;;;;;;;;5052959;28;20429;-84
2022/04/26 16:06:37;;;;;;;7.40;5.60;;;;;;;;;;5049289;28;20425;-84
2022/04/26 16:23:07;;;;;;;7.50;4.20;;;;;;;;;;5005154;28;20438;-84
2022/04/26 16:25:34;;;;;;;7.13;4.07;;;;;;;;;;5017272;28;20417;-83
2022/04/26 16:28:00;;;;;;;5.30;4.00;;;;;;;;;;5037191;28;20912;-83
2022/04/26 16:30:29;;;;;;;5.00;4.50;;;;;;;;;;5045783;28;20501;-82
2022/04/26 16:32:56;;;;;;;5.67;4.13;;;;;;;;;;5067226;28;20430;-81
2022/04/26 16:35:22;;;;;;;4.30;3.60;;;;;;;;;;5079431;28;20452;-80
2022/04/26 16:37:48;;;;;;;9.93;4.20;;;;;;;;;;5085407;28;20432;-82
2022/04/26 16:40:14;;;;;;;6.43;4.20;;;;;;;;;;5068527;28;20405;-82
2022/04/26 16:42:40;;;;;;;4.90;4.33;;;;;;;;;;5047274;28;20430;-82
2022/04/26 16:45:07;;;;;;;4.30;3.90;;;;;;;;;;5055922;28;20416;-83
2022/04/26 16:47:33;;;;;;;4.80;3.87;;;;;;;;;;5069851;28;20451;-81
2022/04/26 16:49:59;;;;;;;5.13;4.40;;;;;;;;;;5085530;28;20408;-83
2022/04/26 16:52:25;;;;;;;9.33;4.87;;;;;;;;;;5074183;28;20433;-81
2022/04/26 16:54:51;;;;;;;5.80;4.80;;;;;;;;;;5069340;28;20508;-83
2022/04/26 16:57:18;;;;;;;5.70;4.07;;;;;;;;;;5085752;28;20396;-82
2022/04/26 16:59:44;;;;;;;5.43;4.50;;;;;;;;;;5087054;28;20458;-81
2022/04/26 17:02:10;;;;;;;5.67;4.33;;;;;;;;;;5056988;28;20450;-82
2022/04/26 17:04:37;;;;;;;5.70;4.73;;;;;;;;;;5052604;28;20417;-81
2022/04/26 17:07:03;;;;;;;5.10;4.27;;;;;;;;;;5069115;28;20513;-81
2022/04/26 17:09:30;;;;;;;4.10;3.70;;;;;;;;;;5027934;28;20414;-81
2022/04/26 17:11:56;;;;;;;5.00;4.47;;;;;;;;;;5026038;28;20498;-82
2022/04/26 17:14:22;;;;;;;5.80;4.70;;;;;;;;;;5051363;28;20462;-83
2022/04/26 17:16:49;;;;;;;6.13;5.23;;;;;;;;;;5061139;28;20453;-81
2022/04/26 17:19:16;;;;;;;11.97;5.90;;;;;;;;;;5060004;28;20418;-82
2022/04/26 17:21:42;;;;;;;6.23;4.77;;;;;;;;;;5045202;28;20427;-82
2022/04/26 17:26:53;;;;;;;3.60;3.30;;;;;;;;;;5060981;28;20422;-83
2022/04/26 17:29:20;;;;;;;3.83;3.43;;;;;;;;;;5058041;28;20414;-82
2022/04/26 17:31:48;;;;;;;3.90;3.20;;;;;;;;;;5061878;28;20435;-81
2022/04/26 17:34:14;;;;;;;3.37;3.00;;;;;;;;;;5044427;28;20555;-83
2022/04/26 17:36:42;;;;;;;4.00;3.43;;;;;;;;;;5052899;28;20423;-83
2022/04/26 17:39:10;;;;;;;3.50;3.03;;;;;;;;;;5047757;28;20444;-83
2022/04/26 17:41:37;;;;;;;5.53;3.73;;;;;;;;;;5051762;28;20430;-83
2022/04/26 17:44:03;;;;;;;4.50;3.77;;;;;;;;;;5044810;28;20407;-84
2022/04/26 17:46:29;;;;;;;6.73;3.43;;;;;;;;;;5047046;28;20414;-83
2022/04/26 17:48:55;;;;;;;4.90;3.90;;;;;;;;;;5052295;28;20444;-81
2022/04/26 17:51:21;;;;;;;5.07;3.90;;;;;;;;;;5050501;28;20433;-83
2022/04/26 17:56:33;;;;;;;4.90;3.40;;;;;;;;;;5060066;28;20407;-83
2022/04/26 17:58:59;;;;;;;6.17;3.90;;;;;;;;;;5062901;28;20205;-82
2022/04/26 18:01:25;;;;;;;5.20;4.20;;;;;;;;;;5059848;28;20442;-81
2022/04/26 18:03:51;;;;;;;7.40;4.20;;;;;;;;;;5064608;28;20379;-81
2022/04/26 18:06:17;;;;;;;4.80;4.20;;;;;;;;;;5064752;28;20447;-83
2022/04/26 18:08:44;;;;;;;4.43;4.00;;;;;;;;;;5065420;28;20481;-82
2022/04/26 18:11:10;;;;;;;6.00;4.03;;;;;;;;;;5062047;28;20425;-81
2022/04/26 18:13:37;;;;;;;5.37;4.10;;;;;;;;;;5065404;28;20409;-85
2022/04/26 18:16:05;;;;;;;6.03;4.70;;;;;;;;;;5056583;28;20429;-85
2022/04/26 18:18:31;;;;;;;4.33;3.73;;;;;;;;;;5064118;28;20406;-84
2022/04/26 18:20:58;;;;;;;5.00;3.20;;;;;;;;;;5059720;28;20448;-85
2022/04/26 18:23:25;;;;;;;4.90;4.13;;;;;;;;;;5059525;28;20432;-85
2022/04/26 18:28:39;;;;;;;5.10;4.53;;;;;;;;;;5049354;28;20178;-84
2022/04/26 18:31:05;;;;;;;4.60;4.10;;;;;;;;;;5063371;28;20437;-85
2022/04/26 18:33:31;;;;;;;6.03;4.53;;;;;;;;;;5070477;28;20485;-84
2022/04/26 18:35:57;;;;;;;7.23;4.83;;;;;;;;;;5049992;28;20460;-85
2022/04/26 18:38:23;;;;;;;7.20;4.83;;;;;;;;;;5044950;28;20467;-84
2022/04/26 18:40:49;;;;;;;7.67;6.07;;;;;;;;;;5049832;28;20402;-84
2022/04/26 18:43:16;;;;;;;6.83;5.50;;;;;;;;;;5062232;28;20756;-85
2022/04/26 18:45:42;;;;;;;7.93;4.63;;;;;;;;;;5056106;28;20421;-85
2022/04/26 18:48:08;;;;;;;5.60;4.87;;;;;;;;;;5065085;28;20428;-85
2022/04/26 18:50:35;;;;;;;6.43;4.97;;;;;;;;;;5066307;28;20413;-87
2022/04/26 18:53:01;;;;;;;5.60;4.70;;;;;;;;;;5066546;28;20476;-84
2022/04/26 18:55:27;;;;;;;6.80;4.87;;;;;;;;;;5064676;28;20931;-85
2022/04/26 18:57:53;;;;;;;7.97;4.50;;;;;;;;;;5053078;28;20432;-84
2022/04/26 19:00:19;;;;;;;5.33;4.80;;;;;;;;;;5050929;28;20410;-85
2022/04/26 19:02:45;;;;;;;6.07;5.27;;;;;;;;;;5047125;28;20456;-85
2022/04/26 19:05:11;;;;;;;6.70;5.10;;;;;;;;;;5029512;28;20816;-85
2022/04/26 19:07:38;;;;;;;4.20;3.80;;;;;;;;;;5047583;28;20458;-85
2022/04/26 19:12:49;;;;;;;4.20;3.53;;;;;;;;;;5059103;28;20217;-85
2022/04/26 19:15:15;;;;;;;6.10;4.80;;;;;;;;;;5065749;28;20461;-86
2022/04/26 19:17:42;;;;;;;5.27;3.70;;;;;;;;;;5061995;28;20428;-86